Weavertown, Pennsylvania
Current Conditions -  °F | °C
As of 9:54 AM on Saturday 25 Oct 2014 (Local Time) from KPTW Reporting Station
Clear Clear  
Wind Chill: 54°   Ceiling: Unl
Heat Index: 54°   Visibility: 10mi
Dew Point: 41°   Wind: 5mph
Humidity: 62%   Direction: 290°WNW
Pressure: 29.91"   Gusts: NA
Location:  40.2688°N, 75.7411°W
Report Text: KPTW 251354Z AUTO 29004KT 10SM CLR 12/05 A2991 RMK AO2 SLP127 T01220050
Loading
Personal Weather Stations






























Interactive Weather Map
Tropical Storm Tracking
New forecast layout! Learn more

10-Day Weather Forecast

Advertisements
Track Severe Weather on mobile